Time;durP1;ratioP1;P1;durP2;ratioP2;P2;SDS_P1;SDS_P2;PMS_P1;PMS_P2;Temp;Humidity;BMP_temperature;BMP_pressure;BME280_temperature;BME280_humidity;BME280_pressure;Samples;Min_cycle;Max_cycle;Signal;HPM_P1;HPM_P2
2022/04/14 00:01:19;;;;;;;15.05;4.00;;;;;;;9.04;100.00;101176.53;5054605;28;20299;-79
2022/04/14 00:03:44;;;;;;;11.90;4.03;;;;;;;8.85;100.00;101182.94;5051989;28;20119;-79
2022/04/14 00:06:10;;;;;;;11.77;4.28;;;;;;;8.78;100.00;101189.88;5056780;28;20067;-80
2022/04/14 00:08:35;;;;;;;11.35;4.28;;;;;;;8.49;100.00;101174.03;5052833;28;20484;-79
2022/04/14 00:11:01;;;;;;;9.55;3.80;;;;;;;8.42;100.00;101186.38;5066606;28;20039;-80
2022/04/14 00:13:27;;;;;;;8.25;3.47;;;;;;;8.31;100.00;101192.75;5048044;28;20468;-80
2022/04/14 00:15:52;;;;;;;7.07;3.63;;;;;;;8.20;100.00;101190.25;5062059;28;20524;-80
2022/04/14 00:18:18;;;;;;;13.50;4.20;;;;;;;8.12;100.00;101201.72;5051493;28;20520;-79
2022/04/14 00:20:43;;;;;;;10.70;3.60;;;;;;;7.95;100.00;101200.69;5064896;28;20028;-79
2022/04/14 00:23:09;;;;;;;6.57;3.35;;;;;;;7.81;100.00;101198.50;5048260;28;20037;-79
2022/04/14 00:25:35;;;;;;;8.15;3.67;;;;;;;7.72;100.00;101202.88;5047441;28;20393;-80
2022/04/14 00:28:00;;;;;;;9.75;3.25;;;;;;;7.59;100.00;101191.66;5057636;28;20434;-79
2022/04/14 00:30:28;;;;;;;7.78;3.00;;;;;;;7.55;100.00;101200.97;5032695;28;20086;-79
2022/04/14 00:32:54;;;;;;;9.13;3.55;;;;;;;7.57;100.00;101199.84;5047154;28;20040;-79
2022/04/14 00:35:28;;;;;;;5.93;3.25;;;;;;;7.62;100.00;101202.94;5061393;28;20032;-79
2022/04/14 00:37:56;;;;;;;11.65;3.78;;;;;;;7.63;100.00;101198.41;5063332;28;20097;-80
2022/04/14 00:40:22;;;;;;;7.68;3.72;;;;;;;7.56;100.00;101198.13;5046120;28;20036;-79
2022/04/14 00:42:47;;;;;;;8.32;3.28;;;;;;;7.44;100.00;101184.09;5061235;28;20032;-79
2022/04/14 00:45:14;;;;;;;11.50;3.13;;;;;;;7.39;100.00;101188.22;5077127;28;20454;-79
2022/04/14 00:47:40;;;;;;;8.98;2.92;;;;;;;7.27;100.00;101152.75;5047202;28;20036;-80
2022/04/14 00:50:06;;;;;;;8.35;2.58;;;;;;;7.47;100.00;101183.81;5033007;28;20040;-79
2022/04/14 00:52:31;;;;;;;6.40;2.60;;;;;;;7.47;100.00;101173.09;5062071;28;20066;-79
2022/04/14 00:54:57;;;;;;;6.60;2.63;;;;;;;7.46;100.00;101171.44;5026488;28;20303;-79
2022/04/14 00:57:22;;;;;;;5.30;2.30;;;;;;;7.42;100.00;101174.53;5047679;28;20040;-79
2022/04/14 00:59:48;;;;;;;6.40;2.97;;;;;;;7.33;100.00;101186.09;5045438;28;20032;-79
2022/04/14 01:02:14;;;;;;;8.35;2.67;;;;;;;7.34;100.00;101183.28;5078244;28;20496;-80
2022/04/14 01:04:40;;;;;;;10.77;2.88;;;;;;;7.43;100.00;101187.75;5047429;28;20039;-79
2022/04/14 01:07:07;;;;;;;9.82;3.63;;;;;;;7.53;100.00;101189.56;5045708;28;20655;-79
2022/04/14 01:09:34;;;;;;;9.00;3.08;;;;;;;7.62;100.00;101184.19;5076784;28;20124;-80
2022/04/14 01:12:00;;;;;;;8.73;3.88;;;;;;;7.67;100.00;101194.44;5049748;28;20378;-79
2022/04/14 01:14:30;;;;;;;14.73;3.97;;;;;;;7.71;100.00;101191.34;5050166;28;20413;-79
2022/04/14 01:17:00;;;;;;;11.50;3.58;;;;;;;7.68;100.00;101180.94;5061430;28;20052;-79
2022/04/14 01:19:27;;;;;;;12.30;3.95;;;;;;;7.86;100.00;101191.72;5041247;28;20041;-79
2022/04/14 01:21:58;;;;;;;12.30;4.28;;;;;;;7.91;100.00;101189.44;5042793;28;20459;-79
2022/04/14 01:24:24;;;;;;;10.32;4.13;;;;;;;8.00;100.00;101182.34;5033766;28;20037;-79
2022/04/14 01:26:50;;;;;;;10.57;3.72;;;;;;;8.04;100.00;101182.88;5056978;28;20493;-79
2022/04/14 01:29:23;;;;;;;10.27;3.67;;;;;;;7.92;100.00;101150.94;5056630;28;20101;-79
2022/04/14 01:31:50;;;;;;;8.57;3.92;;;;;;;7.99;100.00;101164.59;5042467;28;20021;-78
2022/04/14 01:34:16;;;;;;;10.45;4.03;;;;;;;8.10;100.00;101183.13;5049463;28;20382;-80
2022/04/14 01:36:41;;;;;;;10.32;4.15;;;;;;;8.14;100.00;101181.81;5062107;28;20039;-80
2022/04/14 01:39:15;;;;;;;8.80;3.28;;;;;;;8.19;100.00;101185.91;5038912;28;20056;-79
2022/04/14 01:41:42;;;;;;;9.80;3.95;;;;;;;8.20;100.00;101175.03;5059053;28;20111;-79
2022/04/14 01:44:09;;;;;;;10.93;3.70;;;;;;;8.19;100.00;101172.50;5043519;28;20040;-79
2022/04/14 01:46:36;;;;;;;9.63;3.78;;;;;;;8.22;100.00;101182.94;5063958;28;20103;-79
2022/04/14 01:49:02;;;;;;;8.93;4.03;;;;;;;8.13;100.00;101171.28;5049317;28;20063;-79
2022/04/14 01:51:28;;;;;;;9.45;3.42;;;;;;;7.99;100.00;101156.56;5045154;28;20467;-79
2022/04/14 01:53:53;;;;;;;7.07;3.75;;;;;;;7.97;100.00;101163.06;5062598;28;20354;-79
2022/04/14 01:56:21;;;;;;;8.52;4.05;;;;;;;7.90;100.00;101163.63;5063487;28;20032;-80
2022/04/14 01:58:49;;;;;;;12.00;3.83;;;;;;;7.84;100.00;101163.41;5053820;28;20036;-79
2022/04/14 02:01:16;;;;;;;6.93;3.65;;;;;;;7.65;100.00;101146.44;5048778;28;20025;-80
2022/04/14 02:03:41;;;;;;;9.15;4.32;;;;;;;7.64;100.00;101162.63;5062746;28;20036;-80
2022/04/14 02:06:09;;;;;;;7.07;4.00;;;;;;;7.61;100.00;101155.72;5052111;28;20025;-79
2022/04/14 02:08:35;;;;;;;10.13;4.47;;;;;;;7.59;100.00;101159.53;5069202;28;20043;-79
2022/04/14 02:11:04;;;;;;;8.10;3.95;;;;;;;7.61;100.00;101153.06;5063753;28;20127;-79
2022/04/14 02:13:33;;;;;;;7.82;3.88;;;;;;;7.55;100.00;101152.81;5051854;28;20032;-79
2022/04/14 02:15:59;;;;;;;10.15;3.58;;;;;;;7.54;100.00;101145.75;5085311;28;20117;-78
2022/04/14 02:18:25;;;;;;;10.85;3.67;;;;;;;7.55;100.00;101150.13;5038147;28;20040;-79
2022/04/14 02:20:51;;;;;;;6.35;3.35;;;;;;;7.59;100.00;101152.34;5042673;28;20509;-78
2022/04/14 02:23:16;;;;;;;9.10;3.67;;;;;;;7.61;100.00;101146.88;5061307;28;20037;-78
2022/04/14 02:25:42;;;;;;;7.13;3.08;;;;;;;7.68;100.00;101153.31;5051497;28;20048;-80
2022/04/14 02:28:08;;;;;;;9.38;3.63;;;;;;;7.71;100.00;101153.03;5036147;28;20032;-80
2022/04/14 02:30:34;;;;;;;8.80;3.80;;;;;;;7.81;100.00;101153.81;5075184;28;20028;-79
2022/04/14 02:33:00;;;;;;;7.13;3.42;;;;;;;7.84;100.00;101150.84;5063047;28;20458;-79
2022/04/14 02:35:25;;;;;;;6.85;3.50;;;;;;;7.93;100.00;101159.81;5046428;28;20055;-78
2022/04/14 02:37:51;;;;;;;8.63;3.70;;;;;;;7.95;100.00;101154.31;5063009;28;20458;-79
2022/04/14 02:40:20;;;;;;;6.75;3.47;;;;;;;8.01;100.00;101164.44;5032439;28;20455;-79
2022/04/14 02:42:46;;;;;;;8.40;4.03;;;;;;;8.01;100.00;101149.19;5044604;28;20021;-79
2022/04/14 02:45:12;;;;;;;9.82;3.35;;;;;;;8.08;100.00;101158.34;5063591;28;20283;-81
2022/04/14 02:47:38;;;;;;;6.38;3.85;;;;;;;8.06;100.00;101146.91;5059065;28;20063;-80
2022/04/14 02:50:04;;;;;;;8.13;3.70;;;;;;;8.10;100.00;101158.19;5049624;28;20040;-79
2022/04/14 02:52:30;;;;;;;6.15;4.00;;;;;;;8.12;100.00;101161.53;5044861;28;20466;-80
2022/04/14 02:54:56;;;;;;;7.13;3.53;;;;;;;8.12;100.00;101161.53;5067653;28;20082;-80
2022/04/14 02:57:21;;;;;;;7.15;3.28;;;;;;;8.02;100.00;101140.19;5071214;28;20082;-80
2022/04/14 02:59:47;;;;;;;5.95;3.22;;;;;;;8.14;100.00;101162.25;5052110;28;20040;-79
2022/04/14 03:02:12;;;;;;;5.25;2.97;;;;;;;8.11;100.00;101170.59;5051565;28;20036;-80
2022/04/14 03:04:38;;;;;;;9.30;3.13;;;;;;;8.15;100.00;101166.63;5062634;28;20035;-79
2022/04/14 03:07:04;;;;;;;3.05;2.03;;;;;;;8.17;100.00;101145.03;5088618;28;20024;-79
2022/04/14 03:09:29;;;;;;;8.93;3.05;;;;;;;8.34;100.00;101161.13;5089725;28;20034;-80
2022/04/14 03:11:55;;;;;;;5.22;2.50;;;;;;;8.42;100.00;101152.38;5067772;28;20033;-79
2022/04/14 03:14:20;;;;;;;6.28;2.85;;;;;;;8.52;100.00;101152.28;5079053;28;20028;-79
2022/04/14 03:16:46;;;;;;;5.07;2.67;;;;;;;8.67;100.00;101153.44;5102561;28;20178;-80
2022/04/14 03:19:12;;;;;;;7.78;2.25;;;;;;;8.75;100.00;101153.50;5034863;28;20028;-80
2022/04/14 03:21:38;;;;;;;5.97;2.78;;;;;;;8.79;100.00;101152.22;5049259;28;20032;-80
2022/04/14 03:24:03;;;;;;;4.47;2.28;;;;;;;8.86;100.00;101154.25;5069300;28;20032;-80
2022/04/14 03:26:29;;;;;;;3.00;1.98;;;;;;;8.89;100.00;101144.09;5051659;28;20040;-79
2022/04/14 03:28:54;;;;;;;4.65;2.28;;;;;;;8.96;100.00;101141.63;5062694;28;20037;-80
2022/04/14 03:31:20;;;;;;;2.20;1.67;;;;;;;9.02;100.00;101143.66;5057870;28;20120;-80
2022/04/14 03:33:48;;;;;;;3.30;1.70;;;;;;;9.07;100.00;101144.03;5061256;28;20181;-80
2022/04/14 03:36:14;;;;;;;4.05;2.00;;;;;;;9.08;100.00;101135.00;5049355;28;20039;-79
2022/04/14 03:38:39;;;;;;;5.30;2.38;;;;;;;9.08;100.00;101134.19;5031352;28;20398;-79
2022/04/14 03:41:06;;;;;;;4.50;1.90;;;;;;;8.97;100.00;101117.34;5041973;28;20037;-79
2022/04/14 03:43:33;;;;;;;3.78;2.00;;;;;;;9.05;100.00;101127.28;5030479;28;20037;-80
2022/04/14 03:45:58;;;;;;;2.53;1.85;;;;;;;9.07;100.00;101135.16;5056203;28;20036;-80
2022/04/14 03:48:24;;;;;;;5.72;2.40;;;;;;;9.11;100.00;101134.69;5063861;28;20029;-80
2022/04/14 03:50:50;;;;;;;4.47;1.80;;;;;;;9.05;100.00;101115.69;5064198;28;20374;-79
2022/04/14 03:53:18;;;;;;;3.03;1.65;;;;;;;9.12;100.00;101133.69;5063430;28;20370;-79
2022/04/14 03:55:47;;;;;;;4.10;1.50;;;;;;;9.12;100.00;101131.00;5033176;28;20844;-80
2022/04/14 03:58:14;;;;;;;4.30;2.00;;;;;;;9.09;100.00;101125.13;5048976;28;20043;-80
2022/04/14 04:00:41;;;;;;;4.80;1.90;;;;;;;9.07;100.00;101127.94;5064878;28;20483;-80
2022/04/14 04:03:10;;;;;;;4.47;2.30;;;;;;;9.03;100.00;101123.91;5033636;28;20131;-79
2022/04/14 04:05:37;;;;;;;4.05;2.00;;;;;;;9.07;100.00;101129.78;5050549;28;20052;-79
2022/04/14 04:08:07;;;;;;;3.63;1.80;;;;;;;9.05;100.00;101129.09;5052396;28;20136;-80
2022/04/14 04:10:33;;;;;;;5.38;1.83;;;;;;;9.07;100.00;101119.91;5048825;28;20390;-80
2022/04/14 04:12:58;;;;;;;9.27;1.63;;;;;;;9.14;100.00;101122.81;5045727;28;20471;-80
2022/04/14 04:15:24;;;;;;;3.20;1.70;;;;;;;9.14;100.00;101123.63;5067722;28;20043;-80
2022/04/14 04:17:53;;;;;;;2.42;1.42;;;;;;;9.16;100.00;101118.13;5062643;28;20559;-80
2022/04/14 04:20:20;;;;;;;5.10;1.58;;;;;;;9.21;100.00;101127.38;5059741;28;20044;-80
2022/04/14 04:22:46;;;;;;;6.15;2.08;;;;;;;9.20;100.00;101114.94;5062559;28;20533;-79
2022/04/14 04:25:12;;;;;;;5.45;1.88;;;;;;;9.25;100.00;101122.53;5033191;28;20029;-80
2022/04/14 04:27:37;;;;;;;4.30;1.83;;;;;;;9.24;100.00;101123.53;5030651;28;20055;-80
2022/04/14 04:30:04;;;;;;;3.10;2.03;;;;;;;9.23;100.00;101116.47;5063759;28;20084;-80
2022/04/14 04:32:33;;;;;;;3.42;1.45;;;;;;;9.25;100.00;101118.00;5047307;28;20547;-79
2022/04/14 04:35:03;;;;;;;7.22;1.95;;;;;;;9.32;100.00;101126.28;5029047;28;20501;-79
2022/04/14 04:37:29;;;;;;;5.30;1.73;;;;;;;9.21;100.00;101095.19;5049214;28;20048;-79
2022/04/14 04:39:55;;;;;;;7.90;2.00;;;;;;;9.37;100.00;101125.81;5028639;28;20033;-80
2022/04/14 04:42:21;;;;;;;2.85;1.63;;;;;;;9.37;100.00;101125.81;5048003;28;20127;-80
2022/04/14 04:44:46;;;;;;;3.50;1.75;;;;;;;9.39;100.00;101134.53;5028801;28;20040;-79
2022/04/14 04:47:12;;;;;;;4.18;1.80;;;;;;;9.40;100.00;101128.16;5068402;28;20025;-80
2022/04/14 04:49:40;;;;;;;2.97;2.00;;;;;;;9.39;100.00;101129.16;5048604;28;20029;-79
2022/04/14 04:52:06;;;;;;;3.78;1.52;;;;;;;9.37;100.00;101129.31;5060402;28;20386;-79
2022/04/14 04:54:32;;;;;;;4.25;1.75;;;;;;;9.34;100.00;101131.47;5062160;28;20482;-80
2022/04/14 04:57:06;;;;;;;3.50;1.70;;;;;;;9.34;100.00;101131.47;5060220;28;20089;-79
2022/04/14 04:59:38;;;;;;;3.65;1.80;;;;;;;9.33;100.00;101129.78;5031228;28;20066;-79
2022/04/14 05:02:04;;;;;;;4.25;1.70;;;;;;;9.33;100.00;101136.00;5063838;28;20025;-79
2022/04/14 05:04:29;;;;;;;5.03;1.50;;;;;;;9.33;100.00;101135.16;5032025;28;20038;-80
2022/04/14 05:06:55;;;;;;;6.43;1.70;;;;;;;9.22;100.00;101109.44;5049460;28;20017;-79
2022/04/14 05:09:23;;;;;;;6.05;2.00;;;;;;;9.28;100.00;101121.38;5036061;28;20029;-79
2022/04/14 05:11:49;;;;;;;2.42;1.55;;;;;;;9.29;100.00;101121.22;5051360;28;20089;-79
2022/04/14 05:14:15;;;;;;;4.20;2.10;;;;;;;9.28;100.00;101116.00;5051275;28;20033;-79
2022/04/14 05:16:41;;;;;;;3.00;1.60;;;;;;;9.21;100.00;101103.25;5067846;28;20028;-80
2022/04/14 05:19:07;;;;;;;4.90;1.80;;;;;;;9.33;100.00;101124.44;5066296;28;20519;-79
2022/04/14 05:21:32;;;;;;;4.38;2.00;;;;;;;9.32;100.00;101126.28;5067038;28;20128;-79
2022/04/14 05:23:58;;;;;;;4.97;1.95;;;;;;;9.34;100.00;101123.41;5050057;28;21932;-79
2022/04/14 05:26:24;;;;;;;4.07;1.63;;;;;;;9.26;100.00;101113.47;5048313;28;20380;-78
2022/04/14 05:28:50;;;;;;;4.38;1.85;;;;;;;9.41;100.00;101121.78;5062202;28;20423;-80
2022/04/14 05:31:15;;;;;;;5.60;1.48;;;;;;;9.40;100.00;101126.31;5061847;28;20020;-80
2022/04/14 05:33:41;;;;;;;4.53;1.35;;;;;;;9.45;100.00;101123.16;5053706;28;20120;-79
2022/04/14 05:36:09;;;;;;;2.90;1.50;;;;;;;9.45;100.00;101125.84;5055388;28;20068;-79
2022/04/14 05:38:38;;;;;;;3.40;1.85;;;;;;;9.37;100.00;101115.06;5073326;28;20020;-79
2022/04/14 05:41:04;;;;;;;2.72;1.73;;;;;;;9.36;100.00;101121.41;5048928;28;20492;-80
2022/04/14 05:43:30;;;;;;;5.10;1.80;;;;;;;9.39;100.00;101129.16;5071048;28;20036;-79
2022/04/14 05:45:56;;;;;;;4.25;1.85;;;;;;;9.34;100.00;101128.78;5055221;28;20032;-79
2022/04/14 05:48:21;;;;;;;4.55;2.00;;;;;;;9.31;100.00;101124.56;5053783;28;20028;-79
2022/04/14 05:50:49;;;;;;;3.03;1.70;;;;;;;9.35;100.00;101127.81;5054506;28;20458;-79
2022/04/14 05:53:16;;;;;;;6.80;2.20;;;;;;;9.19;100.00;101096.34;5051109;28;20056;-80
2022/04/14 05:55:42;;;;;;;3.38;1.80;;;;;;;9.41;100.00;101124.47;5056322;28;20039;-79
2022/04/14 05:58:08;;;;;;;3.95;1.83;;;;;;;9.36;100.00;101124.94;5065782;28;20123;-79
2022/04/14 06:00:35;;;;;;;4.57;1.80;;;;;;;9.39;100.00;101132.69;5051497;28;20043;-79
2022/04/14 06:03:01;;;;;;;5.35;1.92;;;;;;;9.37;100.00;101131.19;5068422;28;20029;-79
2022/04/14 06:05:27;;;;;;;7.13;1.73;;;;;;;9.38;100.00;101122.13;5045170;28;20490;-79
2022/04/14 06:07:54;;;;;;;2.88;1.75;;;;;;;9.36;100.00;101127.63;5066872;28;20037;-78
2022/04/14 06:10:26;;;;;;;4.95;1.92;;;;;;;9.28;100.00;101116.84;5067060;28;20032;-78
2022/04/14 06:12:55;;;;;;;6.32;2.30;;;;;;;9.31;100.00;101126.41;5050518;28;20091;-77
2022/04/14 06:15:21;;;;;;;2.80;1.50;;;;;;;8.92;100.00;101057.13;5034060;28;20021;-78
2022/04/14 06:17:47;;;;;;;11.90;1.83;;;;;;;9.14;100.00;101104.03;5049013;28;20515;-78
2022/04/14 06:20:13;;;;;;;5.18;1.95;;;;;;;8.85;100.00;101072.97;5060845;28;20070;-78
2022/04/14 06:22:44;;;;;;;2.63;1.05;;;;;;;8.81;100.00;101063.56;5058939;28;20110;-78
2022/04/14 06:25:16;;;;;;;2.60;1.25;;;;;;;9.15;100.00;101128.00;5067959;28;20040;-78
2022/04/14 06:27:43;;;;;;;3.92;2.13;;;;;;;9.17;100.00;101126.00;5050260;28;20020;-79
2022/04/14 06:30:10;;;;;;;4.88;1.65;;;;;;;9.16;100.00;101127.00;5063518;28;20111;-78
2022/04/14 06:32:36;;;;;;;6.88;2.55;;;;;;;9.09;100.00;101112.53;5044834;28;20049;-79
2022/04/14 06:35:07;;;;;;;6.82;2.17;;;;;;;9.22;100.00;101134.41;5051605;28;20473;-79
2022/04/14 06:37:33;;;;;;;5.82;2.45;;;;;;;9.20;100.00;101130.22;5067903;28;20119;-80
2022/04/14 06:39:59;;;;;;;4.78;2.05;;;;;;;9.29;100.00;101131.97;5063319;28;20041;-79
2022/04/14 06:42:25;;;;;;;4.88;1.80;;;;;;;9.24;100.00;101121.69;5067746;28;20134;-80
2022/04/14 06:44:53;;;;;;;5.70;2.17;;;;;;;9.38;100.00;101146.25;5047188;28;20036;-79
2022/04/14 06:47:21;;;;;;;6.18;1.92;;;;;;;9.41;100.00;101138.72;5055037;28;20036;-79
2022/04/14 06:49:46;;;;;;;4.43;1.67;;;;;;;9.44;100.00;101137.56;5046395;28;20123;-80
2022/04/14 06:52:12;;;;;;;7.28;2.03;;;;;;;9.48;100.00;101136.25;5047020;28;20047;-79
2022/04/14 06:54:37;;;;;;;4.88;2.30;;;;;;;9.52;100.00;101132.25;5050170;28;20474;-80
2022/04/14 06:57:04;;;;;;;7.60;2.67;;;;;;;9.60;100.00;101132.28;5059466;28;20037;-80
2022/04/14 06:59:30;;;;;;;3.95;1.98;;;;;;;9.66;100.00;101131.66;5062170;28;20407;-80
2022/04/14 07:01:55;;;;;;;5.03;2.30;;;;;;;9.72;100.00;101134.72;5034799;28;20029;-81
2022/04/14 07:04:21;;;;;;;6.60;2.92;;;;;;;9.79;100.00;101128.53;5071908;28;20029;-81
2022/04/14 07:06:47;;;;;;;9.90;4.13;;;;;;;9.82;100.00;101130.06;5047037;28;20052;-80
2022/04/14 07:09:12;;;;;;;13.75;5.15;;;;;;;9.94;100.00;101147.53;5049718;28;20481;-80
2022/04/14 07:11:38;;;;;;;14.88;6.03;;;;;;;10.02;100.00;101138.69;5050801;28;20036;-80
2022/04/14 07:14:09;;;;;;;32.85;11.07;;;;;;;10.01;100.00;101118.19;5062006;28;20635;-79
2022/04/14 07:16:34;;;;;;;26.13;11.75;;;;;;;10.21;100.00;101141.06;5060480;28;20043;-80
2022/04/14 07:19:00;;;;;;;15.32;8.00;;;;;;;10.26;100.00;101146.78;5062848;28;20029;-79
2022/04/14 07:21:26;;;;;;;19.13;9.88;;;;;;;10.20;100.00;101134.03;5059513;28;20472;-80
2022/04/14 07:23:51;;;;;;;10.80;4.00;;;;;;;10.22;100.00;101133.88;5044951;28;20542;-80
2022/04/14 07:26:17;;;;;;;9.15;3.67;;;;;;;10.25;100.00;101142.44;5047512;28;20041;-80
2022/04/14 07:28:43;;;;;;;13.15;8.18;;;;;;;10.22;100.00;101142.78;5057894;28;20468;-80
2022/04/14 07:31:11;;;;;;;7.00;4.75;;;;;;;10.16;100.00;101134.50;5048363;28;20109;-80
2022/04/14 07:33:37;;;;;;;9.52;3.63;;;;;;;10.17;100.00;101133.53;5063005;28;20059;-79
2022/04/14 07:36:03;;;;;;;3.53;2.10;;;;;;;10.18;100.00;101141.41;5057926;28;20561;-80
2022/04/14 07:38:28;;;;;;;8.13;3.25;;;;;;;10.11;100.00;101132.34;5066023;28;20028;-79
2022/04/14 07:40:57;;;;;;;4.60;2.58;;;;;;;10.16;100.00;101145.25;5054119;28;20075;-79
2022/04/14 07:43:26;;;;;;;7.78;3.13;;;;;;;10.08;100.00;101129.94;5063088;28;20033;-78
2022/04/14 07:45:54;;;;;;;7.32;3.50;;;;;;;10.17;100.00;101147.78;5064813;28;20032;-79
2022/04/14 07:48:22;;;;;;;7.80;3.53;;;;;;;10.20;100.00;101143.94;5058434;28;20039;-79
2022/04/14 07:50:49;;;;;;;3.80;2.00;;;;;;;10.19;100.00;101145.78;5066485;28;20035;-79
2022/04/14 07:53:14;;;;;;;10.23;3.38;;;;;;;10.19;100.00;101142.25;5062275;28;20029;-79
2022/04/14 07:55:40;;;;;;;5.25;3.22;;;;;;;10.28;100.00;101152.06;5044296;28;20089;-79
2022/04/14 07:58:09;;;;;;;6.13;2.70;;;;;;;10.34;100.00;101156.75;5031395;28;20119;-79
2022/04/14 08:00:37;;;;;;;2.75;1.88;;;;;;;10.40;100.00;101149.88;5064294;28;20060;-79
2022/04/14 08:03:04;;;;;;;2.42;1.83;;;;;;;10.44;100.00;101148.56;5057682;28;20047;-79
2022/04/14 08:05:41;;;;;;;9.25;3.42;;;;;;;10.47;100.00;101149.06;5027233;28;20033;-79
2022/04/14 08:08:18;;;;;;;3.15;2.25;;;;;;;10.56;100.00;101152.63;5049687;28;20032;-78
2022/04/14 08:10:46;;;;;;;4.95;2.53;;;;;;;10.65;100.00;101151.59;5046289;28;20040;-79
2022/04/14 08:13:13;;;;;;;3.95;2.05;;;;;;;10.77;100.00;101146.75;5065932;28;20032;-79
2022/04/14 08:15:39;;;;;;;2.58;1.75;;;;;;;10.88;100.00;101148.28;5048981;28;20039;-79
2022/04/14 08:18:08;;;;;;;4.47;2.35;;;;;;;10.89;100.00;101148.09;5029861;28;20033;-79
2022/04/14 08:20:35;;;;;;;3.85;2.42;;;;;;;10.94;100.00;101144.91;5039913;28;20044;-79
2022/04/14 08:23:01;;;;;;;4.93;2.53;;;;;;;10.90;100.00;101133.66;5062162;28;20100;-78
2022/04/14 08:25:34;;;;;;;1.77;1.02;;;;;;;10.85;100.00;101132.44;5062970;28;20025;-80
2022/04/14 08:28:04;;;;;;;1.60;1.27;;;;;;;10.89;100.00;101145.41;5052909;28;20036;-81
2022/04/14 08:30:31;;;;;;;0.30;0.30;;;;;;;10.88;100.00;101151.78;5039059;28;20037;-82
2022/04/14 08:32:59;;;;;;;0.70;0.70;;;;;;;10.83;100.00;101150.63;5062818;28;20405;-82
2022/04/14 08:35:26;;;;;;;0.60;0.60;;;;;;;10.76;100.00;101137.00;5052722;28;20107;-80
2022/04/14 08:37:52;;;;;;;0.32;0.32;;;;;;;10.79;100.00;101145.56;5070019;28;20113;-82
2022/04/14 08:40:21;;;;;;;0.40;0.40;;;;;;;10.90;100.00;101151.63;5034989;28;20064;-81
2022/04/14 08:42:59;;;;;;;0.40;0.40;;;;;;;11.00;100.00;101146.91;5054388;28;20119;-81
2022/04/14 08:45:28;;;;;;;0.40;0.40;;;;;;;11.03;100.00;101133.09;5086411;28;20290;-81
2022/04/14 08:47:54;;;;;;;0.57;0.40;;;;;;;11.20;100.00;101142.03;5049600;28;20462;-82
2022/04/14 08:50:19;;;;;;;0.40;0.40;;;;;;;11.31;100.00;101138.97;5050918;28;20032;-81
2022/04/14 08:52:45;;;;;;;0.40;0.40;;;;;;;11.48;100.00;101145.13;5067690;28;20082;-81
2022/04/14 08:55:12;;;;;;;0.50;0.50;;;;;;;11.62;100.00;101138.22;5065365;28;20039;-80
2022/04/14 08:57:40;;;;;;;0.40;0.40;;;;;;;11.75;100.00;101143.91;5036433;28;20041;-81
2022/04/14 09:00:08;;;;;;;0.40;0.40;;;;;;;11.78;100.00;101134.63;5068696;28;20020;-81
2022/04/14 09:02:34;;;;;;;0.40;0.40;;;;;;;11.93;100.00;101137.44;5034171;28;20072;-77
2022/04/14 09:05:03;;;;;;;0.40;0.40;;;;;;;11.91;100.00;101140.34;5063465;28;20083;-76
2022/04/14 09:07:29;;;;;;;0.60;0.60;;;;;;;11.93;100.00;101138.28;5052260;28;20206;-76
2022/04/14 09:09:55;;;;;;;1.17;0.77;;;;;;;11.91;100.00;101139.47;5035173;28;20035;-76
2022/04/14 09:12:21;;;;;;;0.40;0.40;;;;;;;11.96;100.00;101142.47;5052704;28;20025;-75
2022/04/14 09:14:47;;;;;;;0.32;0.32;;;;;;;12.02;100.00;101142.63;5038457;28;20055;-76
2022/04/14 09:17:13;;;;;;;0.40;0.40;;;;;;;12.11;100.00;101146.13;5040245;28;20059;-75
2022/04/14 09:19:38;;;;;;;0.40;0.40;;;;;;;12.19;100.00;101151.47;5039364;28;20066;-76
2022/04/14 09:22:12;;;;;;;0.40;0.40;;;;;;;12.31;100.00;101147.38;5065851;28;20033;-76
2022/04/14 09:24:39;;;;;;;0.40;0.40;;;;;;;12.44;100.00;101143.25;5038552;28;20141;-76
2022/04/14 09:27:05;;;;;;;0.43;0.43;;;;;;;12.53;100.00;101148.38;5069845;28;20406;-76
2022/04/14 09:29:31;;;;;;;0.45;0.45;;;;;;;12.70;100.00;101143.72;5038339;28;20044;-76
2022/04/14 09:31:56;;;;;;;0.40;0.40;;;;;;;12.83;100.00;101151.19;5054906;28;20037;-76
2022/04/14 09:34:48;;;;;;;0.40;0.40;;;;;;;12.87;100.00;101141.72;5063487;28;20103;-76
2022/04/14 09:37:15;;;;;;;0.93;0.93;;;;;;;12.84;100.00;101147.50;5039334;28;20135;-75
2022/04/14 09:39:57;;;;;;;0.50;0.50;;;;;;;12.80;100.00;101131.84;5051835;28;20044;-75
2022/04/14 09:42:25;;;;;;;0.98;0.95;;;;;;;12.80;100.00;101145.34;5069279;28;20032;-76
2022/04/14 09:44:51;;;;;;;0.50;0.50;;;;;;;12.74;100.00;101144.19;5035470;28;20471;-76
2022/04/14 09:47:23;;;;;;;4.60;0.75;;;;;;;12.64;100.00;101135.50;5054697;28;20036;-76
2022/04/14 09:49:49;;;;;;;0.50;0.50;;;;;;;12.52;100.00;101144.03;5034467;28;20371;-76
2022/04/14 09:52:14;;;;;;;0.60;0.60;;;;;;;12.46;100.00;101146.59;5036035;28;20036;-76
2022/04/14 09:54:40;;;;;;;0.30;0.30;;;;;;;12.46;100.00;101143.88;5038214;28;20032;-76
2022/04/14 09:57:10;;;;;;;0.50;0.50;;;;;;;12.44;100.00;101129.75;5054579;28;20120;-76
2022/04/14 09:59:37;;;;;;;0.40;0.40;;;;;;;12.38;100.00;101152.03;5039334;28;20051;-76
2022/04/14 10:02:09;;;;;;;0.40;0.40;;;;;;;12.28;100.00;101118.06;5071441;28;20029;-76
2022/04/14 10:04:46;;;;;;;0.63;0.63;;;;;;;12.68;100.00;101136.84;5070363;28;20127;-76
2022/04/14 10:07:16;;;;;;;0.50;0.50;;;;;;;13.09;100.00;101150.81;5072300;28;20051;-76
2022/04/14 10:09:48;;;;;;;0.50;0.50;;;;;;;13.36;100.00;101137.75;5052191;28;20100;-76
2022/04/14 10:12:19;;;;;;;0.47;0.47;;;;;;;13.66;100.00;101145.91;5071812;28;20059;-76
2022/04/14 10:15:07;;;;;;;0.43;0.43;;;;;;;14.14;100.00;101151.72;5056677;28;20402;-76
2022/04/14 10:17:39;;;;;;;0.50;0.50;;;;;;;14.25;100.00;101151.22;5053506;28;20127;-76
2022/04/14 10:20:07;;;;;;;0.50;0.50;;;;;;;14.31;100.00;101142.31;5035627;28;20508;-76
2022/04/14 10:22:34;;;;;;;0.57;0.57;;;;;;;14.35;100.00;101157.16;5072660;28;20033;-76
2022/04/14 10:25:02;;;;;;;0.55;0.55;;;;;;;14.19;100.00;101135.75;5073943;28;20107;-76
2022/04/14 10:27:29;;;;;;;0.65;0.65;;;;;;;14.19;100.00;101157.41;5054008;28;20033;-76
2022/04/14 10:29:55;;;;;;;0.60;0.60;;;;;;;14.17;100.00;101148.63;5065064;28;20037;-77
2022/04/14 10:32:21;;;;;;;1.02;0.75;;;;;;;13.98;100.00;101139.25;5039047;28;20104;-76
2022/04/14 10:34:47;;;;;;;0.75;0.70;;;;;;;13.99;100.00;101151.72;5035314;28;20474;-76
2022/04/14 10:37:18;;;;;;;1.38;1.10;;;;;;;13.89;100.00;101153.88;5069816;28;20036;-76
2022/04/14 10:39:48;;;;;;;1.52;1.33;;;;;;;13.86;100.00;101152.38;5058869;28;20081;-76
2022/04/14 10:42:17;;;;;;;1.63;1.00;;;;;;;13.82;100.00;101156.50;5075210;28;20044;-76
2022/04/14 10:44:45;;;;;;;1.33;1.15;;;;;;;13.81;100.00;101154.81;5042072;28;20040;-76
2022/04/14 10:47:11;;;;;;;10.98;5.72;;;;;;;13.84;100.00;101155.28;5092607;28;20055;-76
2022/04/14 10:49:39;;;;;;;1.42;1.10;;;;;;;13.92;100.00;101162.47;5058318;28;20466;-76
2022/04/14 10:52:31;;;;;;;9.65;3.95;;;;;;;13.87;100.00;101154.09;5057613;28;20671;-76
2022/04/14 10:55:01;;;;;;;2.65;1.63;;;;;;;13.84;100.00;101143.66;5037537;28;20102;-76
2022/04/14 10:57:35;;;;;;;2.42;1.77;;;;;;;13.97;100.00;101161.88;5069029;28;20115;-76
2022/04/14 11:00:01;;;;;;;2.38;1.60;;;;;;;13.91;100.00;101155.38;5033943;28;20036;-77
2022/04/14 11:03:05;;;;;;;4.18;2.85;;;;;;;14.07;100.00;101149.75;5043398;28;20036;-76
2022/04/14 11:05:40;;;;;;;4.70;1.77;;;;;;;14.16;100.00;101145.09;5067902;28;20044;-76
2022/04/14 11:08:26;;;;;;;2.50;1.20;;;;;;;14.24;100.00;101158.50;5036620;28;20123;-77
2022/04/14 11:11:10;;;;;;;3.83;1.63;;;;;;;14.12;100.00;101157.31;5051214;28;20094;-76
2022/04/14 11:13:55;;;;;;;2.35;1.55;;;;;;;14.03;100.00;101147.63;5054463;28;20020;-76
2022/04/14 11:16:44;;;;;;;4.78;1.60;;;;;;;14.06;100.00;101163.47;5050460;28;20110;-77
2022/04/14 11:19:19;;;;;;;3.03;1.45;;;;;;;14.03;100.00;101175.50;5068842;28;20131;-77
2022/04/14 11:24:41;;;;;;;2.00;1.45;;;;;;;14.02;100.00;101176.50;5060956;28;20374;-77
2022/04/14 11:27:17;;;;;;;2.60;1.20;;;;;;;13.97;100.00;101168.16;5066443;28;20033;-76